sensor_id;sensor_type;location;lat;lon;timestamp;pressure;altitude;pressure_sealevel;temperature;humidity
15558;BME280;7880;50.110;9.372;2023-02-16T00:01:41;0.08570885095396079;;;0.187;100.0
15558;BME280;7880;50.110;9.372;2023-02-16T00:06:45;0.11595905372523703;;;0.187;100.0
15558;BME280;7880;50.110;9.372;2023-02-16T00:18:36;-0.0252084695675876;;;0.062;100.0
15558;BME280;7880;50.110;9.372;2023-02-16T00:23:41;0.010083389864303172;;;0.062;100.0
15558;BME280;7880;50.110;9.372;2023-02-16T00:28:44;0.11595905372523703;;;0.187;100.0
15558;BME280;7880;50.110;9.372;2023-02-16T00:33:49;0.08570885095396079;;;0.125;100.0
15558;BME280;7880;50.110;9.372;2023-02-16T00:38:53;0.1966263123380486;;;0.25;100.0
15558;BME280;7880;50.110;9.372;2023-02-16T00:43:56;0.07562545235850848;;;0.25;100.0
15558;BME280;7880;50.110;9.372;2023-02-16T00:49:04;0.03025017308536917;;;0.187;100.0
15558;BME280;7880;50.110;9.372;2023-02-16T00:54:17;0.0655420549272094;;;0.187;100.0
15558;BME280;7880;50.110;9.372;2023-02-16T00:59:13;0.07058375349733978;;;0.125;100.0
15558;BME280;7880;50.110;9.372;2023-02-16T01:04:19;0.09579225071356631;;;0.125;100.0
15558;BME280;7880;50.110;9.372;2023-02-16T01:11:24;0.0907505506882444;;;0.125;100.0
15558;BME280;7880;50.110;9.372;2023-02-16T01:16:11;0.05041696096304804;;;0.125;100.0
15558;BME280;7880;50.110;9.372;2023-02-16T01:21:12;-0.08570876684389077;;;0.0;100.0
15558;BME280;7880;50.110;9.372;2023-02-16T01:26:18;-0.015125082613667473;;;0.0;100.0
15558;BME280;7880;50.110;9.372;2023-02-16T01:31:20;-0.055458623444428666;;;0.0;100.0
15558;BME280;7880;50.110;9.372;2023-02-16T01:36:26;0.07562545235850848;;;0.125;100.0
15558;BME280;7880;50.110;9.372;2023-02-16T01:41:39;0.11091735253576189;;;0.187;100.0
15558;BME280;7880;50.110;9.372;2023-02-16T01:46:44;0.04537526355707087;;;0.125;100.0
15558;BME280;7880;50.110;9.372;2023-02-16T01:51:44;0.015125085233012214;;;0.062;100.0
15558;BME280;7880;50.110;9.372;2023-02-16T01:56:47;0.03529186961823143;;;0.062;100.0
15558;BME280;7880;50.110;9.372;2023-02-16T02:01:52;-0.010083388700149954;;;0.0;100.0
15558;BME280;7880;50.110;9.372;2023-02-16T02:06:55;-0.12604227507836185;;;-0.062;100.0
15558;BME280;7880;50.110;9.372;2023-02-16T02:12:02;-0.12100058756768703;;;-0.062;100.0
15558;BME280;7880;50.110;9.372;2023-02-16T02:17:15;-0.09579214564873836;;;-0.062;100.0
15558;BME280;7880;50.110;9.372;2023-02-16T02:29:12;-0.3075428316311445;;;-0.312;100.0
15558;BME280;7880;50.110;9.372;2023-02-16T02:34:11;-0.2016675528138876;;;-0.187;100.0
15558;BME280;7880;50.110;9.372;2023-02-16T02:39:20;-0.3327512124320492;;;-0.25;100.0
15558;BME280;7880;50.110;9.372;2023-02-16T02:44:16;-0.33779288771911525;;;-0.25;100.0
15558;BME280;7880;50.110;9.372;2023-02-16T02:49:22;-0.24200100749731063;;;-0.125;100.0
15558;BME280;7880;50.110;9.372;2023-02-16T03:01:19;-0.20670923566794955;;;-0.187;100.0
15558;BME280;7880;50.110;9.372;2023-02-16T03:06:31;-0.2167926005029585;;;-0.187;100.0
15558;BME280;7880;50.110;9.372;2023-02-16T03:32:08;-0.17141744957771152;;;-0.125;100.0
15558;BME280;7880;50.110;9.372;2023-02-16T03:37:11;-0.24704268802306614;;;-0.187;100.0
15558;BME280;7880;50.110;9.372;2023-02-16T03:42:15;-0.2319176455726847;;;-0.125;100.0
15558;BME280;7880;50.110;9.372;2023-02-16T03:47:19;-0.25712604820146223;;;-0.125;100.0
15558;BME280;7880;50.110;9.372;2023-02-16T03:52:24;-0.26720940721570513;;;-0.187;100.0
15558;BME280;7880;50.110;9.372;2023-02-16T03:57:27;-0.43862633234239184;;;-0.312;100.0
15558;BME280;7880;50.110;9.372;2023-02-16T04:02:33;-0.3579595859569963;;;-0.312;100.0
15558;BME280;7880;50.110;9.372;2023-02-16T04:07:37;-0.3579595859569963;;;-0.312;100.0
15558;BME280;7880;50.110;9.372;2023-02-16T04:12:43;-0.3630012597888708;;;-0.312;100.0
15558;BME280;7880;50.110;9.372;2023-02-16T04:17:48;-0.39325129666831343;;;-0.312;100.0
15558;BME280;7880;50.110;9.372;2023-02-16T04:22:54;-0.3630012597888708;;;-0.312;100.0
15558;BME280;7880;50.110;9.372;2023-02-16T04:27:55;-0.26720940721570513;;;-0.25;100.0
15558;BME280;7880;50.110;9.372;2023-02-16T04:33:00;-0.26720940721570513;;;-0.25;100.0
15558;BME280;7880;50.110;9.372;2023-02-16T04:38:04;-0.5646679744124412;;;-0.437;100.0
15558;BME280;7880;50.110;9.372;2023-02-16T04:43:13;-0.4587930072972085;;;-0.437;100.0
15558;BME280;7880;50.110;9.372;2023-02-16T04:48:27;-0.3277095368539449;;;-0.312;100.0
15558;BME280;7880;50.110;9.372;2023-02-16T04:53:24;-0.4134179821005091;;;-0.375;100.0
15558;BME280;7880;50.110;9.372;2023-02-16T04:58:28;-0.33779288771911525;;;-0.25;100.0
15558;BME280;7880;50.110;9.372;2023-02-16T05:03:33;-0.3781262795382645;;;-0.312;100.0
15558;BME280;7880;50.110;9.372;2023-02-16T05:08:41;-0.5646679744124412;;;-0.437;100.0
15558;BME280;7880;50.110;9.372;2023-02-16T05:14:48;-0.5394596605503466;;;-0.437;100.0
15558;BME280;7880;50.110;9.372;2023-02-16T05:19:27;-0.5898762809985783;;;-0.437;100.0
15558;BME280;7880;50.110;9.372;2023-02-16T05:24:41;-0.49912634323700333;;;-0.437;100.0
15558;BME280;7880;50.110;9.372;2023-02-16T05:29:37;-0.46383467530831696;;;-0.437;100.0
15558;BME280;7880;50.110;9.372;2023-02-16T05:34:47;-0.5445013239048422;;;-0.437;100.0
15558;BME280;7880;50.110;9.372;2023-02-16T05:39:49;-0.4487096704018768;;;-0.375;100.0
15558;BME280;7880;50.110;9.372;2023-02-16T05:44:55;-0.5041680089198053;;;-0.375;100.0
15558;BME280;7880;50.110;9.372;2023-02-16T05:48:21;-0.4487096704018768;;;-0.375;100.0
15558;BME280;7880;50.110;9.372;2023-02-16T05:53:25;-0.5192930042219814;;;-0.437;100.0
15558;BME280;7880;50.110;9.372;2023-02-16T05:58:28;-0.6503761871194002;;;-0.5;100.0
15558;BME280;7880;50.110;9.372;2023-02-16T06:03:32;-0.574751297920011;;;-0.437;100.0
15558;BME280;7880;50.110;9.372;2023-02-16T06:08:36;-0.599959601595765;;;-0.562;100.0
15558;BME280;7880;50.110;9.372;2023-02-16T06:13:40;-0.5797929592372384;;;-0.562;100.0
15558;BME280;7880;50.110;9.372;2023-02-16T06:18:49;-0.6503761871194002;;;-0.5;100.0
15558;BME280;7880;50.110;9.372;2023-02-16T06:23:49;-0.6402928723429795;;;-0.562;100.0
15558;BME280;7880;50.110;9.372;2023-02-16T06:28:53;-0.5243346687406302;;;-0.5;100.0
15558;BME280;7880;50.110;9.372;2023-02-16T06:34:14;-0.5192930042219814;;;-0.437;100.0
15558;BME280;7880;50.110;9.372;2023-02-16T06:39:07;-0.4587930072972085;;;-0.437;100.0
15558;BME280;7880;50.110;9.372;2023-02-16T06:44:15;-0.5697096363117453;;;-0.5;100.0
15558;BME280;7880;50.110;9.372;2023-02-16T06:49:13;-0.6302095564024057;;;-0.5;100.0
15558;BME280;7880;50.110;9.372;2023-02-16T06:54:17;-0.5192930042219814;;;-0.437;100.0
15558;BME280;7880;50.110;9.372;2023-02-16T06:59:20;-0.5041680089198053;;;-0.437;100.0
15558;BME280;7880;50.110;9.372;2023-02-16T07:04:23;-0.5142513394122943;;;-0.437;100.0
15558;BME280;7880;50.110;9.372;2023-02-16T07:09:29;-0.48400134444236753;;;-0.375;100.0
15558;BME280;7880;50.110;9.372;2023-02-16T07:14:41;-0.4487096704018768;;;-0.375;100.0
15558;BME280;7880;50.110;9.372;2023-02-16T07:19:40;-0.4739180104574189;;;-0.375;100.0
15558;BME280;7880;50.110;9.372;2023-02-16T07:24:46;-0.44366800151765345;;;-0.375;100.0
15558;BME280;7880;50.110;9.372;2023-02-16T07:29:48;-0.4587930072972085;;;-0.375;100.0
15558;BME280;7880;50.110;9.372;2023-02-16T07:34:51;-0.4587930072972085;;;-0.312;100.0
15558;BME280;7880;50.110;9.372;2023-02-16T07:39:55;-0.4335846628760919;;;-0.312;100.0
15558;BME280;7880;50.110;9.372;2023-02-16T07:44:59;-0.3176261848246213;;;-0.25;100.0
15558;BME280;7880;50.110;9.372;2023-02-16T07:50:06;-0.22687596417381428;;;-0.187;100.0
15558;BME280;7880;50.110;9.372;2023-02-16T07:55:10;-0.2167926005029585;;;-0.125;100.0
15558;BME280;7880;50.110;9.372;2023-02-16T08:00:11;-0.08570876684389077;;;0.0;100.0
15558;BME280;7880;50.110;9.372;2023-02-16T08:05:15;-0.16637576468638143;;;-0.062;100.0
15558;BME280;7880;50.110;9.372;2023-02-16T08:10:23;0.010083389864303172;;;0.125;100.0
15558;BME280;7880;50.110;9.372;2023-02-16T08:15:30;-0.0453752399829682;;;0.125;100.0
15558;BME280;7880;50.110;9.372;2023-02-16T08:20:35;0.14620926697389222;;;0.25;100.0
15558;BME280;7880;50.110;9.372;2023-02-16T08:25:38;0.1865429009369109;;;0.375;100.0
15558;BME280;7880;50.110;9.372;2023-02-16T08:30:42;0.3781279166287277;;;0.562;100.0
15558;BME280;7880;50.110;9.372;2023-02-16T08:35:47;0.41341993904206903;;;0.562;100.0
15558;BME280;7880;50.110;9.372;2023-02-16T08:40:52;0.5747550802538172;;;0.687;100.0
15558;BME280;7880;50.110;9.372;2023-02-16T08:45:57;0.6856731627136469;;;0.812;100.0
15558;BME280;7880;50.110;9.372;2023-02-16T08:51:03;0.7260070458054543;;;0.875;100.0
15558;BME280;7880;50.110;9.372;2023-02-16T08:56:10;0.7663409475237131;;;0.937;100.0
15558;BME280;7880;50.110;9.372;2023-02-16T09:01:13;0.8016331268067006;;;1.0;100.0
15558;BME280;7880;50.110;9.372;2023-02-16T09:06:22;0.9428019865474198;;;1.125;100.0
15558;BME280;7880;50.110;9.372;2023-02-16T09:11:21;0.9075097502209246;;;1.125;100.0
15558;BME280;7880;50.110;9.372;2023-02-16T09:16:33;0.9730524861777667;;;1.125;100.0
15558;BME280;7880;50.110;9.372;2023-02-16T09:21:40;1.0537205364147666;;;1.187;100.0
15558;BME280;7880;50.110;9.372;2023-02-16T09:26:38;1.114221622986952;;;1.312;100.0
15558;BME280;7880;50.110;9.372;2023-02-16T09:31:40;1.320933984988369;;;1.437;100.0
15558;BME280;7880;50.110;9.372;2023-02-16T09:36:52;1.356226388370851;;;1.562;100.0
15558;BME280;7880;50.110;9.372;2023-02-16T09:42:03;1.4318530150689184;;;1.625;100.0
15558;BME280;7880;50.110;9.372;2023-02-16T09:46:56;1.552855753991753;;;1.75;100.0
15558;BME280;7880;50.110;9.372;2023-02-16T09:52:03;1.7192347937321757;;;1.937;100.0
15558;BME280;7880;50.110;9.372;2023-02-16T09:57:18;1.8099871308135334;;;2.0;100.0
15558;BME280;7880;50.110;9.372;2023-02-16T10:02:25;1.9814084692450706;;;2.187;100.0
15558;BME280;7880;50.110;9.372;2023-02-16T10:07:26;1.930990393605316;;;2.187;100.0
15558;BME280;7880;50.110;9.372;2023-02-16T10:12:24;2.001575707650045;;;2.25;100.0
15558;BME280;7880;50.110;9.372;2023-02-16T10:17:31;2.2234156374412124;;;2.375;100.0
15558;BME280;7880;50.110;9.372;2023-02-16T10:22:32;2.3494613031158225;;;2.562;100.0
15558;BME280;7880;50.110;9.372;2023-02-16T10:27:36;2.4150051211530807;;;2.625;100.0
15558;BME280;7880;50.110;9.372;2023-02-16T10:32:49;2.5259255406504963;;;2.75;100.0
15558;BME280;7880;50.110;9.372;2023-02-16T10:37:53;2.6065950251242613;;;2.812;100.0
15558;BME280;7880;50.110;9.372;2023-02-16T10:42:58;2.858687644317979;;;3.062;100.0
15558;BME280;7880;50.110;9.372;2023-02-16T10:47:52;2.909106255468214;;;3.187;100.0
15558;BME280;7880;50.110;9.372;2023-02-16T10:52:35;2.8536457848036663;;;3.125;100.0
15558;BME280;7880;50.110;9.372;2023-02-16T10:57:38;2.974650493473746;;;3.187;100.0
15558;BME280;7880;50.110;9.372;2023-02-16T11:02:49;3.2721211148949805;;;3.5;100.0
15558;BME280;7880;50.110;9.372;2023-02-16T11:07:52;3.76118518600706;;;3.937;100.0
15558;BME280;7880;50.110;9.372;2023-02-16T11:12:53;3.7208499012747778;;;4.0;100.0
15558;BME280;7880;50.110;9.372;2023-02-16T11:18:02;3.7712690101005135;;;4.062;100.0
15558;BME280;7880;50.110;9.372;2023-02-16T11:23:21;4.295629467163235;;;4.437;100.0
15558;BME280;7880;50.110;9.372;2023-02-16T11:28:05;4.754447449330473;;;4.875;100.0
15558;BME280;7880;50.110;9.372;2023-02-16T11:33:19;5.203183851018548;;;5.437;100.0
15558;BME280;7880;50.110;9.372;2023-02-16T11:38:28;5.56116622905829;;;5.875;100.0
15558;BME280;7880;50.110;9.372;2023-02-16T11:43:19;5.697300757863559;;;6.062;100.0
15558;BME280;7880;50.110;9.372;2023-02-16T11:48:32;5.793099257169525;;;6.187;100.0
15558;BME280;7880;50.110;9.372;2023-02-16T11:53:33;5.823351436672965;;;6.312;100.0
15558;BME280;7880;50.110;9.372;2023-02-16T11:58:30;6.004864733718568;;;6.5;100.0
15558;BME280;7880;50.110;9.372;2023-02-16T12:03:56;6.226714831223944;;;6.687;100.0
15558;BME280;7880;50.110;9.372;2023-02-16T12:08:51;6.388060710584978;;;6.875;100.0
15558;BME280;7880;50.110;9.372;2023-02-16T12:13:53;6.65529047884047;;;7.125;100.0
15558;BME280;7880;50.110;9.372;2023-02-16T12:19:07;6.640164243715117;;;7.125;100.0
15558;BME280;7880;50.110;9.372;2023-02-16T12:24:03;6.77630045413971;;;7.25;100.0
15558;BME280;7880;50.110;9.372;2023-02-16T12:29:11;6.806552974157967;;;7.437;100.0
15558;BME280;7880;50.110;9.372;2023-02-16T12:34:18;6.8872264120960605;;;7.437;100.0
15558;BME280;7880;50.110;9.372;2023-02-16T12:39:29;6.988068314292468;;;7.5;100.0
15558;BME280;7880;50.110;9.372;2023-02-16T12:44:34;6.983026216417784;;;7.437;100.0
15558;BME280;7880;50.110;9.372;2023-02-16T12:49:42;7.114120855747023;;;7.5;100.0
15558;BME280;7880;50.110;9.372;2023-02-16T12:54:37;7.05865771509707;;;7.5;100.0
15558;BME280;7880;50.110;9.372;2023-02-16T12:59:41;7.1695840316126125;;;7.562;100.0
15558;BME280;7880;50.110;9.372;2023-02-16T13:04:45;7.3611843646503985;;;7.687;100.0
15558;BME280;7880;50.110;9.372;2023-02-16T13:09:53;7.477153191441903;;;7.875;100.0
15558;BME280;7880;50.110;9.372;2023-02-16T13:15:00;7.542700857296586;;;7.875;100.0
15558;BME280;7880;50.110;9.372;2023-02-16T13:19:55;7.477153191441903;;;7.937;100.0
15558;BME280;7880;50.110;9.372;2023-02-16T13:25:14;7.497321698773885;;;7.875;100.0
15558;BME280;7880;50.110;9.372;2023-02-16T13:30:47;7.69396488929633;;;8.125;100.0
15558;BME280;7880;50.110;9.372;2023-02-16T13:35:57;7.779681290365988;;;8.187;100.0
15558;BME280;7880;50.110;9.372;2023-02-16T13:41:02;7.76959700352163;;;8.25;100.0
15558;BME280;7880;50.110;9.372;2023-02-16T13:45:53;7.809934157883982;;;8.25;100.0
15558;BME280;7880;50.110;9.372;2023-02-16T13:50:56;7.830102742050076;;;8.25;100.0
15558;BME280;7880;50.110;9.372;2023-02-16T13:56:17;7.754470575437881;;;8.187;100.0
15558;BME280;7880;50.110;9.372;2023-02-16T14:01:39;7.668754199106479;;;8.062;100.0
15558;BME280;7880;50.110;9.372;2023-02-16T14:06:31;7.613290706300177;;;8.0;100.0
15558;BME280;7880;50.110;9.372;2023-02-16T14:11:59;7.699007028207416;;;8.0;100.0
15558;BME280;7880;50.110;9.372;2023-02-16T14:16:39;7.860355627030367;;;8.187;100.0
15558;BME280;7880;50.110;9.372;2023-02-16T14:21:47;7.779681290365988;;;8.187;100.0
15558;BME280;7880;50.110;9.372;2023-02-16T14:26:54;7.719175586762139;;;8.062;100.0
15558;BME280;7880;50.110;9.372;2023-02-16T14:31:57;7.749428433325375;;;8.062;100.0
15558;BME280;7880;50.110;9.372;2023-02-16T14:38:02;7.7897655783744995;;;8.062;100.0
15558;BME280;7880;50.110;9.372;2023-02-16T14:42:50;7.699007028207416;;;8.0;100.0
15558;BME280;7880;50.110;9.372;2023-02-16T14:47:55;7.699007028207416;;;8.062;100.0
15558;BME280;7880;50.110;9.372;2023-02-16T14:53:16;7.628417109936708;;;7.937;100.0
15558;BME280;7880;50.110;9.372;2023-02-16T14:58:20;7.658669925067807;;;8.0;100.0
15558;BME280;7880;50.110;9.372;2023-02-16T15:03:15;7.69396488929633;;;8.0;100.0
15558;BME280;7880;50.110;9.372;2023-02-16T15:08:15;7.628417109936708;;;7.937;100.0
15558;BME280;7880;50.110;9.372;2023-02-16T15:13:18;7.5830379068851474;;;7.875;100.0
15558;BME280;7880;50.110;9.372;2023-02-16T15:18:27;7.537658727407688;;;7.875;100.0
15558;BME280;7880;50.110;9.372;2023-02-16T15:23:24;7.5275744685030075;;;7.812;100.0
15558;BME280;7880;50.110;9.372;2023-02-16T15:28:28;7.467068939522141;;;7.75;100.0
15558;BME280;7880;50.110;9.372;2023-02-16T15:33:37;7.406563452450792;;;7.687;100.0
15558;BME280;7880;50.110;9.372;2023-02-16T15:38:41;7.35614224523888;;;7.625;100.0
15558;BME280;7880;50.110;9.372;2023-02-16T15:43:45;7.391437087231315;;;7.625;100.0
15558;BME280;7880;50.110;9.372;2023-02-16T15:48:45;7.265384145599091;;;7.562;100.0
15558;BME280;7880;50.110;9.372;2023-02-16T15:53:54;7.2855526040366385;;;7.562;100.0
15558;BME280;7880;50.110;9.372;2023-02-16T15:58:41;7.2603420317173;;;7.5;100.0
15558;BME280;7880;50.110;9.372;2023-02-16T16:03:46;7.3359737705031876;;;7.562;100.0
15558;BME280;7880;50.110;9.372;2023-02-16T16:08:51;7.2603420317173;;;7.562;100.0
15558;BME280;7880;50.110;9.372;2023-02-16T16:13:56;7.51749021076248;;;7.625;100.0
15558;BME280;7880;50.110;9.372;2023-02-16T16:19:14;7.315805300424108;;;7.625;100.0
15558;BME280;7880;50.110;9.372;2023-02-16T16:24:09;7.2200051311403515;;;7.437;100.0
15558;BME280;7880;50.110;9.372;2023-02-16T16:29:27;7.139331385865807;;;7.375;100.0
15558;BME280;7880;50.110;9.372;2023-02-16T16:34:29;6.947731539444066;;;7.187;100.0
15558;BME280;7880;50.110;9.372;2023-02-16T16:39:22;6.957815731409937;;;7.125;100.0
15558;BME280;7880;50.110;9.372;2023-02-16T16:44:31;6.720837527984986;;;6.937;100.0
15558;BME280;7880;50.110;9.372;2023-02-16T16:49:26;6.544364815414883;;;6.687;100.0
15558;BME280;7880;50.110;9.372;2023-02-16T16:54:32;7.5275744685030075;;;7.375;100.0
15558;BME280;7880;50.110;9.372;2023-02-16T16:59:34;6.569575181097025;;;6.875;100.0
15558;BME280;7880;50.110;9.372;2023-02-16T17:04:39;6.246883049845929;;;6.437;100.0
15558;BME280;7880;50.110;9.372;2023-02-16T17:09:45;6.226714831223944;;;6.25;100.0
15558;BME280;7880;50.110;9.372;2023-02-16T17:14:49;6.120831759856083;;;6.187;100.0
15558;BME280;7880;50.110;9.372;2023-02-16T17:19:51;6.050243116915226;;;6.062;100.0
15558;BME280;7880;50.110;9.372;2023-02-16T17:25:00;5.883855827111984;;;5.937;100.0
15558;BME280;7880;50.110;9.372;2023-02-16T17:30:00;5.888897861540317;;;5.937;100.0
15558;BME280;7880;50.110;9.372;2023-02-16T17:35:08;5.8183094060281295;;;5.812;100.0
15558;BME280;7880;50.110;9.372;2023-02-16T17:40:11;5.909066002164036;;;5.937;100.0
15558;BME280;7880;50.110;9.372;2023-02-16T17:45:15;5.863687692309031;;;5.937;100.0
15558;BME280;7880;50.110;9.372;2023-02-16T17:50:19;5.914108038047561;;;5.937;100.0
15558;BME280;7880;50.110;9.372;2023-02-16T17:55:25;5.8183094060281295;;;5.875;100.0
15558;BME280;7880;50.110;9.372;2023-02-16T18:00:29;5.60654438175261;;;5.625;100.0
15558;BME280;7880;50.110;9.372;2023-02-16T18:05:33;5.52083011312061;;;5.562;100.0
15558;BME280;7880;50.110;9.372;2023-02-16T18:10:40;5.430073920363793;;;5.437;100.0
15558;BME280;7880;50.110;9.372;2023-02-16T18:15:41;5.40990589033463;;;5.437;100.0
15558;BME280;7880;50.110;9.372;2023-02-16T18:20:44;5.445199945941567;;;5.437;100.0
15558;BME280;7880;50.110;9.372;2023-02-16T18:25:51;5.601502363622421;;;5.625;100.0
15558;BME280;7880;50.110;9.372;2023-02-16T18:30:54;5.490578038390959;;;5.5;100.0
15558;BME280;7880;50.110;9.372;2023-02-16T18:36:00;5.440157937124605;;;5.5;100.0
15558;BME280;7880;50.110;9.372;2023-02-16T18:41:01;6.398144837940345;;;6.25;100.0
15558;BME280;7880;50.110;9.372;2023-02-16T18:46:11;5.586376310978085;;;5.687;100.0
15558;BME280;7880;50.110;9.372;2023-02-16T18:51:12;5.7477210075594485;;;5.75;100.0
15558;BME280;7880;50.110;9.372;2023-02-16T18:56:16;5.712426829716423;;;5.812;100.0
15558;BME280;7880;50.110;9.372;2023-02-16T19:01:25;5.667048622015864;;;5.812;100.0
15558;BME280;7880;50.110;9.372;2023-02-16T19:06:27;5.540998168761144;;;5.625;100.0
15558;BME280;7880;50.110;9.372;2023-02-16T19:11:33;5.535956154414452;;;5.562;100.0
15558;BME280;7880;50.110;9.372;2023-02-16T19:16:52;5.460325974138686;;;5.5;100.0
15558;BME280;7880;50.110;9.372;2023-02-16T19:21:44;5.359485835634405;;;5.437;100.0
15558;BME280;7880;50.110;9.372;2023-02-16T19:26:47;5.3090658100380095;;;5.312;100.0
15558;BME280;7880;50.110;9.372;2023-02-16T19:31:51;5.142679932061583;;;5.125;100.0
15558;BME280;7880;50.110;9.372;2023-02-16T19:36:57;5.122511968389153;;;5.062;100.0
15558;BME280;7880;50.110;9.372;2023-02-16T19:42:03;5.3947798708686605;;;5.312;100.0
15558;BME280;7880;50.110;9.372;2023-02-16T19:47:04;5.722510879073525;;;5.812;100.0
15558;BME280;7880;50.110;9.372;2023-02-16T19:52:08;5.7073848054744305;;;5.937;100.0
15558;BME280;7880;50.110;9.372;2023-02-16T19:57:25;6.7006691999326;;;6.812;100.0
15558;BME280;7880;50.110;9.372;2023-02-16T20:02:17;6.660332557797664;;;7.0;100.0
15558;BME280;7880;50.110;9.372;2023-02-16T20:07:21;6.862015954736853;;;7.187;100.0
15558;BME280;7880;50.110;9.372;2023-02-16T20:12:27;6.97294202154153;;;7.312;100.0
15558;BME280;7880;50.110;9.372;2023-02-16T20:17:30;7.038489309046417;;;7.437;100.0
15558;BME280;7880;50.110;9.372;2023-02-16T20:22:34;7.416647697385633;;;7.75;100.0
15558;BME280;7880;50.110;9.372;2023-02-16T20:27:43;7.204878798226128;;;7.562;100.0
15558;BME280;7880;50.110;9.372;2023-02-16T20:32:45;7.214963019877905;;;7.625;100.0
15558;BME280;7880;50.110;9.372;2023-02-16T20:37:53;7.098994541168213;;;7.437;100.0
15558;BME280;7880;50.110;9.372;2023-02-16T20:42:52;7.325889534881571;;;7.625;100.0
15558;BME280;7880;50.110;9.372;2023-02-16T20:47:57;7.411605574772693;;;7.687;100.0
15558;BME280;7880;50.110;9.372;2023-02-16T20:53:01;7.204878798226128;;;7.562;100.0
15558;BME280;7880;50.110;9.372;2023-02-16T20:58:12;7.265384145599091;;;7.687;100.0
15558;BME280;7880;50.110;9.372;2023-02-16T21:02:53;7.290594719373621;;;7.625;100.0
15558;BME280;7880;50.110;9.372;2023-02-16T21:07:57;7.431774066970684;;;7.75;100.0
15558;BME280;7880;50.110;9.372;2023-02-16T21:13:00;7.62337497510016;;;7.937;100.0
15558;BME280;7880;50.110;9.372;2023-02-16T21:18:04;7.446900439175079;;;7.812;100.0
15558;BME280;7880;50.110;9.372;2023-02-16T21:23:08;7.537658727407688;;;7.875;100.0
15558;BME280;7880;50.110;9.372;2023-02-16T21:28:12;7.51749021076248;;;7.875;100.0
15558;BME280;7880;50.110;9.372;2023-02-16T21:33:15;7.603206438664347;;;7.937;100.0
15558;BME280;7880;50.110;9.372;2023-02-16T21:38:18;7.638501380482921;;;7.937;100.0
15558;BME280;7880;50.110;9.372;2023-02-16T21:43:22;7.62337497510016;;;8.0;100.0
15558;BME280;7880;50.110;9.372;2023-02-16T21:49:00;7.7242177271284165;;;8.062;100.0
15558;BME280;7880;50.110;9.372;2023-02-16T21:53:50;7.784723434224725;;;8.125;100.0
15558;BME280;7880;50.110;9.372;2023-02-16T21:58:44;7.699007028207416;;;8.062;100.0
15558;BME280;7880;50.110;9.372;2023-02-16T22:03:48;7.744386291503906;;;8.062;100.0
15558;BME280;7880;50.110;9.372;2023-02-16T22:08:52;7.749428433325375;;;8.125;100.0
15558;BME280;7880;50.110;9.372;2023-02-16T22:14:06;7.719175586762139;;;8.062;100.0
15558;BME280;7880;50.110;9.372;2023-02-16T22:19:06;7.850271330872784;;;8.125;100.0
15558;BME280;7880;50.110;9.372;2023-02-16T22:24:07;7.809934157883982;;;8.062;100.0
15558;BME280;7880;50.110;9.372;2023-02-16T22:29:12;7.759512717841426;;;8.062;100.0
15558;BME280;7880;50.110;9.372;2023-02-16T22:34:19;7.794807722815312;;;8.125;100.0
15558;BME280;7880;50.110;9.372;2023-02-16T22:39:21;7.941030038200552;;;8.25;100.0
15558;BME280;7880;50.110;9.372;2023-02-16T22:44:25;7.890608522488037;;;8.187;100.0
15558;BME280;7880;50.110;9.372;2023-02-16T22:49:29;7.966240806970745;;;8.25;100.0
15558;BME280;7880;50.110;9.372;2023-02-16T22:54:33;8.036830998235382;;;8.312;100.0
15558;BME280;7880;50.110;9.372;2023-02-16T22:59:39;7.971282961597899;;;8.312;100.0
15558;BME280;7880;50.110;9.372;2023-02-16T23:04:41;7.941030038200552;;;8.187;100.0
15558;BME280;7880;50.110;9.372;2023-02-16T23:09:47;7.804892012570053;;;8.062;100.0
15558;BME280;7880;50.110;9.372;2023-02-16T23:14:49;7.643543516192585;;;7.875;100.0
15558;BME280;7880;50.110;9.372;2023-02-16T23:19:53;7.467068939522141;;;7.625;100.0
15558;BME280;7880;50.110;9.372;2023-02-16T23:25:59;7.305721067130799;;;7.437;100.0
15558;BME280;7880;50.110;9.372;2023-02-16T23:30:40;7.194794577738503;;;7.312;100.0
15558;BME280;7880;50.110;9.372;2023-02-16T23:35:46;7.114120855747023;;;7.187;100.0
15558;BME280;7880;50.110;9.372;2023-02-16T23:40:54;7.129247172945179;;;7.25;100.0
15558;BME280;7880;50.110;9.372;2023-02-16T23:46:00;7.109078750596382;;;7.187;100.0
15558;BME280;7880;50.110;9.372;2023-02-16T23:50:57;6.967899924539961;;;7.062;100.0
15558;BME280;7880;50.110;9.372;2023-02-16T23:56:04;6.92252106462256;;;7.0;100.0
